Time;durP1;ratioP1;P1;durP2;ratioP2;P2;SDS_P1;SDS_P2;PMS_P1;PMS_P2;Temp;Humidity;BMP_temperature;BMP_pressure;BME280_temperature;BME280_humidity;BME280_pressure;Samples;Min_cycle;Max_cycle;Signal;HPM_P1;HPM_P2
2023/09/16 00:01:33;;;;;;;6.67;2.93;;;17.20;99.90;;;;;;5033967;28;20815;-82
2023/09/16 00:04:00;;;;;;;7.07;4.13;;;17.10;99.90;;;;;;5033899;28;20504;-82
2023/09/16 00:06:26;;;;;;;8.30;4.50;;;17.10;99.90;;;;;;5033813;28;20463;-82
2023/09/16 00:08:55;;;;;;;6.13;4.27;;;17.10;99.90;;;;;;5033531;28;20450;-82
2023/09/16 00:11:22;;;;;;;8.40;4.83;;;17.10;99.90;;;;;;5033833;28;20445;-82
2023/09/16 00:13:49;;;;;;;10.10;4.20;;;17.10;99.90;;;;;;5033817;28;20442;-82
2023/09/16 00:16:16;;;;;;;10.33;5.20;;;17.10;99.90;;;;;;5033339;28;20462;-82
2023/09/16 00:18:43;;;;;;;6.70;4.27;;;17.10;99.90;;;;;;5033658;28;20505;-82
2023/09/16 00:21:11;;;;;;;4.50;3.10;;;17.10;99.90;;;;;;5033337;28;20893;-82
2023/09/16 00:23:38;;;;;;;6.57;3.50;;;17.10;99.90;;;;;;5033587;28;20492;-82
2023/09/16 00:26:06;;;;;;;6.70;3.40;;;17.10;99.90;;;;;;5033326;28;20478;-82
2023/09/16 00:28:35;;;;;;;8.00;4.33;;;17.00;99.90;;;;;;5033521;28;20439;-82
2023/09/16 00:31:03;;;;;;;7.63;3.93;;;17.00;99.90;;;;;;5033439;28;20500;-82
2023/09/16 00:33:31;;;;;;;7.00;4.07;;;17.00;99.90;;;;;;5033136;28;20447;-82
2023/09/16 00:35:58;;;;;;;5.13;3.90;;;17.00;99.90;;;;;;5032771;28;20474;-83
2023/09/16 00:38:25;;;;;;;5.83;3.57;;;17.00;99.90;;;;;;5033420;28;20443;-82
2023/09/16 00:40:52;;;;;;;5.57;3.53;;;17.00;99.90;;;;;;5033245;28;20482;-82
2023/09/16 00:43:21;;;;;;;5.80;4.10;;;16.90;99.90;;;;;;5033326;28;20450;-82
2023/09/16 00:45:47;;;;;;;6.20;3.10;;;16.90;99.90;;;;;;5033230;28;20474;-82
2023/09/16 00:48:17;;;;;;;5.97;3.27;;;16.90;99.90;;;;;;5032969;28;20438;-82
2023/09/16 00:50:45;;;;;;;9.90;4.30;;;16.90;99.90;;;;;;5032905;28;20808;-82
2023/09/16 00:53:13;;;;;;;5.27;4.30;;;16.90;99.90;;;;;;5033204;28;20442;-82
2023/09/16 00:55:40;;;;;;;7.60;4.20;;;16.90;99.90;;;;;;5033116;28;20470;-82
2023/09/16 00:58:10;;;;;;;5.07;2.90;;;16.90;99.90;;;;;;5033164;28;20447;-82
2023/09/16 01:00:38;;;;;;;7.70;4.17;;;16.90;99.90;;;;;;5033086;28;20482;-82
2023/09/16 01:03:06;;;;;;;8.07;4.53;;;16.90;99.90;;;;;;5032839;28;20962;-82
2023/09/16 01:05:34;;;;;;;7.80;4.20;;;16.90;99.90;;;;;;5033012;28;20471;-82
2023/09/16 01:08:01;;;;;;;5.50;3.50;;;16.90;99.90;;;;;;5033052;28;20451;-82
2023/09/16 01:10:28;;;;;;;6.47;4.10;;;16.90;99.90;;;;;;5032778;28;20443;-82
2023/09/16 01:12:56;;;;;;;8.73;3.90;;;16.90;99.90;;;;;;5032722;28;20823;-82
2023/09/16 01:15:27;;;;;;;4.97;3.57;;;16.90;99.90;;;;;;5032929;28;20469;-82
2023/09/16 01:18:05;;;;;;;7.60;4.50;;;16.90;99.90;;;;;;5032720;28;20860;-82
2023/09/16 01:20:33;;;;;;;6.27;5.00;;;16.90;99.90;;;;;;5033126;28;20517;-82
2023/09/16 01:23:00;;;;;;;8.33;4.27;;;16.90;99.90;;;;;;5032623;28;20917;-82
2023/09/16 01:25:29;;;;;;;7.40;3.80;;;17.00;99.90;;;;;;5032614;28;20466;-82
2023/09/16 01:27:56;;;;;;;11.63;5.30;;;16.90;99.90;;;;;;5032941;28;20485;-82
2023/09/16 01:30:26;;;;;;;8.53;4.50;;;17.00;99.90;;;;;;5032612;28;20454;-82
2023/09/16 01:32:58;;;;;;;5.27;3.33;;;16.90;99.90;;;;;;5032670;28;20479;-82
2023/09/16 01:35:28;;;;;;;8.03;4.60;;;16.90;99.90;;;;;;5032814;28;20463;-82
2023/09/16 01:37:56;;;;;;;6.80;4.07;;;16.90;99.90;;;;;;5032887;28;20482;-82
2023/09/16 01:40:25;;;;;;;8.30;5.10;;;16.90;99.90;;;;;;5032727;28;20490;-82
2023/09/16 01:42:53;;;;;;;5.70;3.50;;;16.90;99.90;;;;;;5032786;28;20442;-82
2023/09/16 01:45:20;;;;;;;7.03;4.30;;;16.90;99.90;;;;;;5032600;28;20466;-82
2023/09/16 01:47:49;;;;;;;8.57;4.90;;;16.90;99.90;;;;;;5034804;28;20454;-82
2023/09/16 01:50:15;;;;;;;9.50;4.57;;;16.80;99.90;;;;;;5036399;28;20438;-82
2023/09/16 01:52:42;;;;;;;6.23;4.33;;;16.80;99.90;;;;;;5036488;28;20819;-82
2023/09/16 01:55:09;;;;;;;7.13;3.97;;;16.80;99.90;;;;;;5036255;28;20841;-82
2023/09/16 01:57:36;;;;;;;9.23;4.13;;;16.80;99.90;;;;;;5036287;28;20447;-82
2023/09/16 02:00:06;;;;;;;6.40;4.20;;;16.80;99.90;;;;;;5036179;28;20485;-82
2023/09/16 02:02:33;;;;;;;7.00;4.23;;;16.90;99.90;;;;;;5036201;28;20446;-82
2023/09/16 02:05:01;;;;;;;10.17;4.73;;;16.80;99.90;;;;;;5035971;28;21001;-82
2023/09/16 02:07:27;;;;;;;8.30;4.80;;;16.90;99.90;;;;;;5035798;28;20446;-82
2023/09/16 02:09:54;;;;;;;15.00;5.43;;;16.90;99.90;;;;;;5035797;28;20439;-82
2023/09/16 02:12:21;;;;;;;9.93;4.47;;;16.90;99.90;;;;;;5036089;28;20454;-82
2023/09/16 02:14:51;;;;;;;13.37;5.70;;;16.90;99.90;;;;;;5035915;28;20454;-82
2023/09/16 02:17:19;;;;;;;13.80;4.57;;;16.90;99.90;;;;;;5035991;28;20466;-82
2023/09/16 02:19:46;;;;;;;11.23;4.87;;;16.90;99.90;;;;;;5035415;28;20890;-82
2023/09/16 02:22:12;;;;;;;7.60;5.30;;;16.90;99.90;;;;;;5035873;28;20447;-82
2023/09/16 02:24:39;;;;;;;11.83;5.00;;;16.90;99.90;;;;;;5036016;28;20465;-82
2023/09/16 02:27:06;;;;;;;8.37;5.40;;;16.90;99.90;;;;;;5035503;28;20490;-82
2023/09/16 02:29:33;;;;;;;9.07;4.47;;;16.80;99.90;;;;;;5035441;28;20446;-82
2023/09/16 02:32:00;;;;;;;8.33;3.97;;;16.80;99.90;;;;;;5035643;28;20502;-82
2023/09/16 02:34:31;;;;;;;7.90;4.83;;;16.80;99.90;;;;;;5035835;28;20446;-82
2023/09/16 02:36:58;;;;;;;8.90;4.97;;;16.80;99.90;;;;;;5035530;28;20463;-82
2023/09/16 02:39:25;;;;;;;9.60;4.33;;;16.80;99.90;;;;;;5035261;28;20435;-82
2023/09/16 02:41:52;;;;;;;6.77;3.60;;;16.80;99.90;;;;;;5035626;28;20482;-82
2023/09/16 02:44:18;;;;;;;10.60;5.27;;;16.80;99.90;;;;;;5035428;28;20423;-82
2023/09/16 02:46:45;;;;;;;6.37;3.83;;;16.80;99.90;;;;;;5035317;28;20462;-82
2023/09/16 02:49:12;;;;;;;8.63;5.00;;;16.80;99.90;;;;;;5035168;28;20820;-82
2023/09/16 02:51:40;;;;;;;10.57;5.10;;;16.70;99.90;;;;;;5035312;28;20438;-82
2023/09/16 02:54:07;;;;;;;6.73;4.50;;;16.70;99.90;;;;;;5034942;28;20940;-82
2023/09/16 02:56:34;;;;;;;12.60;4.30;;;16.70;99.90;;;;;;5034831;28;21016;-82
2023/09/16 02:59:01;;;;;;;7.93;4.63;;;16.70;99.90;;;;;;5034664;28;20447;-82
2023/09/16 03:01:28;;;;;;;5.47;4.23;;;16.70;99.90;;;;;;5035210;28;20483;-82
2023/09/16 03:03:55;;;;;;;10.77;4.43;;;16.70;99.90;;;;;;5035042;28;20458;-82
2023/09/16 03:06:22;;;;;;;7.63;4.13;;;16.70;99.90;;;;;;5034943;28;20463;-82
2023/09/16 03:08:50;;;;;;;8.97;4.50;;;16.70;99.90;;;;;;5034959;28;20451;-82
2023/09/16 03:11:17;;;;;;;10.37;5.67;;;16.70;99.90;;;;;;5034903;28;20453;-82
2023/09/16 03:13:44;;;;;;;8.53;4.07;;;16.70;99.90;;;;;;5034882;28;20462;-82
2023/09/16 03:16:19;;;;;;;10.40;4.87;;;16.70;99.90;;;;;;5034506;28;20455;-82
2023/09/16 03:18:47;;;;;;;9.53;4.70;;;16.70;99.90;;;;;;5034430;28;20962;-82
2023/09/16 03:21:15;;;;;;;7.37;3.93;;;16.60;99.90;;;;;;5034415;28;20535;-82
2023/09/16 03:23:42;;;;;;;8.50;4.57;;;16.60;99.90;;;;;;5034649;28;20447;-82
2023/09/16 03:26:11;;;;;;;6.07;4.40;;;16.60;99.90;;;;;;5034542;28;20483;-82
2023/09/16 03:28:41;;;;;;;6.97;4.60;;;16.60;99.90;;;;;;5034581;28;20442;-82
2023/09/16 03:31:08;;;;;;;10.47;6.23;;;16.70;99.90;;;;;;5034192;28;20442;-82
2023/09/16 03:33:35;;;;;;;10.53;4.97;;;16.60;99.90;;;;;;5034431;28;20447;-83
2023/09/16 03:36:02;;;;;;;5.43;3.60;;;16.60;99.90;;;;;;5034126;28;20459;-82
2023/09/16 03:38:31;;;;;;;10.10;5.77;;;16.50;99.90;;;;;;5034387;28;20455;-82
2023/09/16 03:40:58;;;;;;;6.37;4.10;;;16.50;99.90;;;;;;5034234;28;20483;-82
2023/09/16 03:43:26;;;;;;;7.07;4.37;;;16.50;99.90;;;;;;5034596;28;20781;-82
2023/09/16 03:45:53;;;;;;;7.53;4.50;;;16.60;99.90;;;;;;5034331;28;20922;-82
2023/09/16 03:48:19;;;;;;;8.00;4.70;;;16.60;99.90;;;;;;5034849;28;20473;-82
2023/09/16 03:50:47;;;;;;;6.77;4.27;;;16.50;99.90;;;;;;5033825;28;20963;-82
2023/09/16 03:53:13;;;;;;;4.37;3.20;;;16.50;99.90;;;;;;5033887;28;20935;-82
2023/09/16 03:55:40;;;;;;;8.93;4.03;;;16.50;99.90;;;;;;5034025;28;20467;-82
2023/09/16 03:58:07;;;;;;;9.80;4.37;;;16.40;99.90;;;;;;5033995;28;20447;-82
2023/09/16 04:00:35;;;;;;;6.03;3.70;;;16.40;99.90;;;;;;5033889;28;20482;-82
2023/09/16 04:03:02;;;;;;;7.67;3.63;;;16.40;99.90;;;;;;5033670;28;20959;-82
2023/09/16 04:05:29;;;;;;;8.57;4.97;;;16.40;99.90;;;;;;5033874;28;20463;-82
2023/09/16 04:07:55;;;;;;;8.53;4.60;;;16.30;99.90;;;;;;5033545;28;20814;-82
2023/09/16 04:10:22;;;;;;;7.60;4.33;;;16.30;99.90;;;;;;5032750;28;20447;-82
2023/09/16 04:12:49;;;;;;;10.70;4.87;;;16.30;99.90;;;;;;5033470;28;20446;-82
2023/09/16 04:15:16;;;;;;;11.10;5.60;;;16.30;99.90;;;;;;5033665;28;20469;-82
2023/09/16 04:17:44;;;;;;;9.10;5.43;;;16.30;99.90;;;;;;5033688;28;20540;-82
2023/09/16 04:20:11;;;;;;;7.93;5.03;;;16.30;99.90;;;;;;5033275;28;20820;-82
2023/09/16 04:22:38;;;;;;;9.80;5.87;;;16.30;99.90;;;;;;5033678;28;20454;-82
2023/09/16 04:25:05;;;;;;;7.67;5.07;;;16.30;99.90;;;;;;5033571;28;20469;-82
2023/09/16 04:27:32;;;;;;;10.97;5.77;;;16.30;99.90;;;;;;5033632;28;20987;-82
2023/09/16 04:29:59;;;;;;;9.30;5.17;;;16.30;99.90;;;;;;5033299;28;20439;-82
2023/09/16 04:32:26;;;;;;;8.87;5.00;;;16.20;99.90;;;;;;5033228;28;20452;-82
2023/09/16 04:34:56;;;;;;;7.27;4.50;;;16.20;99.90;;;;;;5033362;28;20443;-82
2023/09/16 04:37:23;;;;;;;12.03;6.03;;;16.20;99.90;;;;;;5033432;28;20812;-82
2023/09/16 04:39:49;;;;;;;8.53;4.30;;;16.10;99.90;;;;;;5033377;28;20447;-82
2023/09/16 04:42:16;;;;;;;9.67;6.33;;;16.20;99.90;;;;;;5033300;28;20478;-82
2023/09/16 04:44:44;;;;;;;9.07;4.80;;;16.20;99.90;;;;;;5033258;28;20641;-82
2023/09/16 04:47:11;;;;;;;10.80;5.70;;;16.10;99.90;;;;;;5033337;28;20446;-82
2023/09/16 04:49:38;;;;;;;11.10;4.63;;;16.10;99.90;;;;;;5033288;28;20443;-82
2023/09/16 04:52:06;;;;;;;7.60;4.33;;;16.10;99.90;;;;;;5033271;28;20447;-82
2023/09/16 04:54:35;;;;;;;11.77;5.30;;;16.00;99.90;;;;;;5033253;28;20431;-82
2023/09/16 04:57:03;;;;;;;9.50;5.37;;;16.10;99.90;;;;;;5033188;28;20470;-82
2023/09/16 04:59:32;;;;;;;7.60;4.03;;;16.00;99.90;;;;;;5033427;28;20446;-82
2023/09/16 05:01:59;;;;;;;7.83;4.80;;;16.00;99.90;;;;;;5032913;28;20907;-82
2023/09/16 05:04:25;;;;;;;8.30;5.33;;;16.00;99.90;;;;;;5032873;28;20462;-82
2023/09/16 05:06:52;;;;;;;8.00;4.67;;;16.10;99.90;;;;;;5032728;28;20470;-82
2023/09/16 05:09:21;;;;;;;9.17;4.53;;;16.00;99.90;;;;;;5033640;28;20451;-82
2023/09/16 05:11:48;;;;;;;10.10;5.83;;;16.10;99.90;;;;;;5033027;28;20446;-82
2023/09/16 05:14:15;;;;;;;9.53;4.60;;;16.10;99.90;;;;;;5032710;28;20944;-82
2023/09/16 05:16:42;;;;;;;13.33;5.33;;;16.10;99.90;;;;;;5033040;28;20542;-82
2023/09/16 05:19:09;;;;;;;10.23;5.00;;;16.10;99.90;;;;;;5032760;28;20446;-82
2023/09/16 05:21:36;;;;;;;12.60;5.27;;;16.20;99.90;;;;;;5032842;28;20823;-82
2023/09/16 05:24:03;;;;;;;8.90;5.60;;;16.20;99.90;;;;;;5036933;28;20443;-82
2023/09/16 05:26:31;;;;;;;9.23;4.83;;;16.20;99.90;;;;;;5036440;28;20489;-82
2023/09/16 05:28:58;;;;;;;7.23;4.83;;;16.10;99.90;;;;;;5036822;28;20500;-82
2023/09/16 05:31:25;;;;;;;11.03;6.20;;;16.10;99.90;;;;;;5036471;28;20450;-82
2023/09/16 05:33:52;;;;;;;11.00;5.80;;;16.20;99.90;;;;;;5036744;28;20455;-82
2023/09/16 05:36:20;;;;;;;8.73;5.20;;;16.20;99.90;;;;;;5036345;28;20462;-82
2023/09/16 05:38:47;;;;;;;10.73;5.17;;;16.20;99.90;;;;;;5036630;28;20451;-82
2023/09/16 05:41:13;;;;;;;9.47;4.70;;;16.20;99.90;;;;;;5036503;28;20848;-82
2023/09/16 05:43:41;;;;;;;10.27;4.33;;;16.20;99.90;;;;;;5036206;28;20967;-82
2023/09/16 05:46:08;;;;;;;13.60;7.00;;;16.30;99.90;;;;;;5036505;28;20462;-82
2023/09/16 05:48:35;;;;;;;10.60;5.80;;;16.30;99.90;;;;;;5036278;28;20435;-82
2023/09/16 05:51:02;;;;;;;8.43;4.60;;;16.40;99.90;;;;;;5036187;28;20783;-82
2023/09/16 05:53:31;;;;;;;10.47;5.83;;;16.50;99.90;;;;;;5036387;28;20457;-82
2023/09/16 05:55:58;;;;;;;8.93;4.77;;;16.50;99.90;;;;;;5036278;28;20462;-82
2023/09/16 05:58:24;;;;;;;14.10;5.47;;;16.50;99.90;;;;;;5036095;28;20407;-82
2023/09/16 06:00:56;;;;;;;9.07;4.50;;;16.50;99.90;;;;;;5036151;28;20446;-82
2023/09/16 06:03:23;;;;;;;9.87;5.30;;;16.60;99.90;;;;;;5036670;28;20466;-82
2023/09/16 06:05:50;;;;;;;11.13;5.70;;;16.60;99.90;;;;;;5036138;28;20471;-83
2023/09/16 06:08:17;;;;;;;9.63;5.23;;;16.70;99.90;;;;;;5036171;28;20550;-83
2023/09/16 06:10:43;;;;;;;9.50;5.50;;;16.70;99.90;;;;;;5036090;28;20443;-82
2023/09/16 06:13:10;;;;;;;10.70;5.00;;;16.80;99.90;;;;;;5036048;28;20765;-82
2023/09/16 06:15:37;;;;;;;10.47;5.77;;;16.90;99.90;;;;;;5036199;28;20467;-83
2023/09/16 06:18:06;;;;;;;12.10;6.03;;;16.90;99.90;;;;;;5035943;28;20851;-82
2023/09/16 06:20:33;;;;;;;9.60;4.87;;;17.00;99.90;;;;;;5035878;28;20486;-82
2023/09/16 06:23:03;;;;;;;7.50;4.60;;;17.20;99.90;;;;;;5035798;28;20564;-83
2023/09/16 06:25:30;;;;;;;14.23;5.13;;;17.30;99.90;;;;;;5035248;28;20468;-82
2023/09/16 06:27:58;;;;;;;10.93;6.70;;;17.40;99.90;;;;;;5035771;28;20489;-82
2023/09/16 06:30:24;;;;;;;9.83;6.00;;;17.50;99.90;;;;;;5035691;28;20446;-82
2023/09/16 06:32:53;;;;;;;12.70;5.33;;;17.60;99.90;;;;;;5035977;28;20580;-82
2023/09/16 06:35:22;;;;;;;12.23;5.57;;;17.70;99.90;;;;;;5034768;28;20516;-82
2023/09/16 06:37:49;;;;;;;8.03;5.03;;;17.70;99.90;;;;;;5035301;28;20981;-82
2023/09/16 06:40:17;;;;;;;13.40;6.23;;;17.70;99.90;;;;;;5035516;28;20492;-82
2023/09/16 06:42:43;;;;;;;5.77;3.80;;;17.80;99.90;;;;;;5035454;28;20579;-83
2023/09/16 06:45:11;;;;;;;11.17;4.40;;;17.80;99.90;;;;;;5035104;28;20821;-83
2023/09/16 06:47:37;;;;;;;15.20;5.20;;;17.80;99.90;;;;;;5035345;28;20449;-83
2023/09/16 06:50:06;;;;;;;8.93;4.87;;;17.90;99.90;;;;;;5035290;28;20822;-83
2023/09/16 06:52:34;;;;;;;7.23;5.00;;;17.90;99.90;;;;;;5035309;28;20863;-83
2023/09/16 06:55:00;;;;;;;8.37;5.20;;;18.00;99.90;;;;;;5034896;28;20469;-82
2023/09/16 06:57:27;;;;;;;7.80;4.63;;;18.10;99.90;;;;;;5035201;28;20443;-83
2023/09/16 06:59:54;;;;;;;7.73;5.10;;;18.20;99.90;;;;;;5035188;28;20782;-83
2023/09/16 07:02:22;;;;;;;9.93;5.67;;;18.20;99.90;;;;;;5035013;28;20483;-83
2023/09/16 07:04:49;;;;;;;8.20;5.07;;;18.40;99.90;;;;;;5034650;28;20501;-83
2023/09/16 07:07:15;;;;;;;7.67;5.07;;;18.50;99.90;;;;;;5034720;28;20944;-83
2023/09/16 07:09:43;;;;;;;7.93;5.60;;;18.60;99.90;;;;;;5034702;28;20435;-83
2023/09/16 07:12:10;;;;;;;8.13;4.80;;;18.70;99.90;;;;;;5034896;28;20450;-84
2023/09/16 07:14:38;;;;;;;6.83;4.90;;;18.90;99.90;;;;;;5034610;28;20442;-83
2023/09/16 07:17:05;;;;;;;9.60;5.13;;;19.10;99.90;;;;;;5034501;28;20470;-83
2023/09/16 07:19:32;;;;;;;11.40;5.57;;;19.20;99.90;;;;;;5034534;28;20442;-83
2023/09/16 07:21:59;;;;;;;12.73;5.97;;;19.40;99.90;;;;;;5035487;28;20518;-83
2023/09/16 07:24:26;;;;;;;6.10;4.07;;;19.50;99.90;;;;;;5034848;28;20450;-83
2023/09/16 07:26:54;;;;;;;6.90;4.30;;;19.60;99.90;;;;;;5034263;28;20487;-83
2023/09/16 07:29:22;;;;;;;5.67;4.13;;;19.80;99.90;;;;;;5034607;28;20446;-83
2023/09/16 07:31:49;;;;;;;11.70;5.90;;;19.90;99.90;;;;;;5034236;28;20545;-83
2023/09/16 07:34:16;;;;;;;9.30;4.73;;;20.00;99.90;;;;;;5034780;28;20457;-83
2023/09/16 07:36:43;;;;;;;6.10;3.40;;;20.00;99.90;;;;;;5034576;28;20493;-83
2023/09/16 07:39:10;;;;;;;7.20;4.70;;;20.10;99.90;;;;;;5034676;28;20446;-83
2023/09/16 07:41:38;;;;;;;6.77;4.10;;;20.30;99.90;;;;;;5034294;28;20844;-83
2023/09/16 07:44:06;;;;;;;6.07;4.40;;;20.60;99.90;;;;;;5034397;28;20857;-83
2023/09/16 07:46:34;;;;;;;10.23;4.77;;;20.70;99.90;;;;;;5034220;28;20463;-84
2023/09/16 07:49:00;;;;;;;6.90;3.37;;;20.80;99.90;;;;;;5033993;28;20927;-84
2023/09/16 07:51:27;;;;;;;5.07;4.13;;;20.90;99.90;;;;;;5034328;28;20451;-83
2023/09/16 07:53:54;;;;;;;4.93;3.77;;;21.00;99.90;;;;;;5034142;28;20951;-83
2023/09/16 07:56:21;;;;;;;5.87;3.73;;;21.00;99.90;;;;;;5034043;28;20470;-83
2023/09/16 07:58:48;;;;;;;6.50;3.67;;;21.10;99.90;;;;;;5034124;28;20465;-83
2023/09/16 08:01:16;;;;;;;6.97;3.70;;;21.10;99.90;;;;;;5033930;28;20450;-83
2023/09/16 08:03:43;;;;;;;8.50;3.70;;;21.10;99.90;;;;;;5034061;28;20438;-83
2023/09/16 08:06:10;;;;;;;7.20;4.03;;;21.10;99.90;;;;;;5034046;28;20473;-83
2023/09/16 08:08:36;;;;;;;5.10;3.83;;;21.00;99.90;;;;;;5033925;28;20433;-83
2023/09/16 08:11:03;;;;;;;6.73;4.30;;;21.10;99.90;;;;;;5034319;28;20450;-83
2023/09/16 08:13:30;;;;;;;6.90;3.93;;;21.00;99.90;;;;;;5033535;28;20943;-85
2023/09/16 08:15:57;;;;;;;5.97;4.27;;;21.10;99.90;;;;;;5033719;28;20473;-85
2023/09/16 08:18:25;;;;;;;4.63;3.20;;;21.10;99.90;;;;;;5033763;28;20461;-84
2023/09/16 08:20:51;;;;;;;5.40;3.50;;;21.00;99.90;;;;;;5033429;28;20434;-85
2023/09/16 08:23:18;;;;;;;5.30;3.67;;;21.10;99.90;;;;;;5033599;28;20470;-85
2023/09/16 08:25:46;;;;;;;6.37;4.50;;;21.20;99.90;;;;;;5033569;28;20971;-85
2023/09/16 08:28:13;;;;;;;5.27;3.63;;;21.30;99.90;;;;;;5033758;28;20453;-85
2023/09/16 08:30:39;;;;;;;8.80;5.10;;;21.50;99.90;;;;;;5033710;28;20823;-85
2023/09/16 08:33:06;;;;;;;8.20;4.13;;;21.70;99.90;;;;;;5033298;28;20434;-85
2023/09/16 08:35:34;;;;;;;8.13;4.33;;;21.80;99.90;;;;;;5033217;28;20459;-85
2023/09/16 08:38:02;;;;;;;8.10;4.73;;;22.00;99.90;;;;;;5033187;28;20458;-85
2023/09/16 08:40:32;;;;;;;5.27;4.50;;;22.00;99.90;;;;;;5033419;28;20446;-85
2023/09/16 08:43:09;;;;;;;5.83;3.93;;;21.90;99.90;;;;;;5033327;28;20517;-85
2023/09/16 08:45:43;;;;;;;4.77;3.90;;;22.00;99.90;;;;;;5033017;28;20840;-85
2023/09/16 08:48:14;;;;;;;4.83;3.47;;;22.10;99.90;;;;;;5033709;28;20211;-85
2023/09/16 08:50:43;;;;;;;5.03;3.70;;;22.30;99.90;;;;;;5033759;28;20477;-85
2023/09/16 08:53:12;;;;;;;5.40;3.17;;;22.50;99.90;;;;;;5033496;28;20442;-85
2023/09/16 08:55:39;;;;;;;4.63;3.20;;;22.80;99.90;;;;;;5033374;28;20227;-85
2023/09/16 08:58:08;;;;;;;7.77;4.70;;;23.30;99.90;;;;;;5032447;28;20438;-86
2023/09/16 09:00:36;;;;;;;4.43;3.93;;;23.60;99.90;;;;;;5033115;28;20232;-85
2023/09/16 09:03:02;;;;;;;4.80;3.40;;;23.90;99.90;;;;;;5033352;28;20700;-85
2023/09/16 09:05:30;;;;;;;5.80;4.00;;;24.00;99.90;;;;;;5032724;28;20604;-86
2023/09/16 09:07:59;;;;;;;4.03;3.22;;;24.30;99.90;;;;;;5032747;28;20652;-86
2023/09/16 09:10:26;;;;;;;6.27;3.13;;;24.30;99.90;;;;;;5033188;28;20215;-85
2023/09/16 09:12:53;;;;;;;3.75;3.15;;;24.30;99.90;;;;;;5032586;28;20582;-85
2023/09/16 09:15:22;;;;;;;4.00;3.35;;;24.30;99.90;;;;;;5033465;28;20249;-85
2023/09/16 09:17:51;;;;;;;4.07;3.67;;;24.20;99.90;;;;;;5033139;28;20213;-85
2023/09/16 09:20:22;;;;;;;3.10;2.80;;;24.20;99.90;;;;;;5033058;28;20192;-85
2023/09/16 09:22:51;;;;;;;3.50;2.88;;;24.20;99.90;;;;;;5033023;28;20219;-85
2023/09/16 09:25:22;;;;;;;4.97;2.63;;;24.30;99.90;;;;;;5033026;28;20226;-86
2023/09/16 09:27:50;;;;;;;4.57;2.90;;;24.40;99.90;;;;;;5032748;28;20661;-85
2023/09/16 09:30:19;;;;;;;6.95;3.83;;;24.40;99.90;;;;;;5033268;28;20207;-85
2023/09/16 09:32:46;;;;;;;4.22;3.83;;;24.40;99.90;;;;;;5033165;28;20702;-85
2023/09/16 09:35:14;;;;;;;3.33;3.03;;;24.50;99.90;;;;;;5032886;28;20228;-85
2023/09/16 09:37:41;;;;;;;3.15;2.90;;;24.70;99.90;;;;;;5032958;28;20203;-85
2023/09/16 09:40:12;;;;;;;3.90;2.67;;;24.90;99.90;;;;;;5032918;28;20215;-85
2023/09/16 09:42:41;;;;;;;3.92;2.85;;;24.90;99.90;;;;;;5032595;28;20212;-85
2023/09/16 09:45:09;;;;;;;2.70;2.35;;;25.10;99.90;;;;;;5032798;28;20230;-86
2023/09/16 09:47:37;;;;;;;3.30;3.00;;;25.20;99.90;;;;;;5032851;28;20203;-86
2023/09/16 09:50:07;;;;;;;3.30;2.80;;;25.40;99.90;;;;;;5032963;28;20204;-85
2023/09/16 09:52:34;;;;;;;2.50;1.60;;;25.70;99.90;;;;;;5032729;28;20214;-85
2023/09/16 09:55:02;;;;;;;5.22;2.30;;;25.90;99.90;;;;;;5032460;28;20743;-86
2023/09/16 09:57:29;;;;;;;2.30;2.15;;;25.90;99.90;;;;;;5032692;28;20573;-86
2023/09/16 09:59:58;;;;;;;1.55;1.45;;;26.00;99.90;;;;;;5032429;28;20211;-86
2023/09/16 10:02:26;;;;;;;1.88;1.73;;;25.80;99.90;;;;;;5032380;28;20231;-86
2023/09/16 10:04:58;;;;;;;1.80;1.70;;;25.80;99.90;;;;;;5032566;28;20215;-86
2023/09/16 10:07:26;;;;;;;2.17;2.08;;;25.90;99.90;;;;;;5032705;28;20261;-86
2023/09/16 10:09:53;;;;;;;1.80;1.48;;;26.00;99.90;;;;;;5034726;28;20203;-86
2023/09/16 10:12:20;;;;;;;2.05;1.20;;;26.30;99.90;;;;;;5036214;28;20727;-85
2023/09/16 10:14:47;;;;;;;1.65;1.25;;;26.40;99.90;;;;;;5035998;28;20211;-85
2023/09/16 10:17:15;;;;;;;2.28;2.08;;;26.40;99.90;;;;;;5036044;28;20207;-85
2023/09/16 10:19:43;;;;;;;1.55;1.45;;;26.40;99.90;;;;;;5035769;28;20195;-85
2023/09/16 10:22:11;;;;;;;1.30;1.10;;;26.30;99.90;;;;;;5035945;28;20199;-86
2023/09/16 10:24:40;;;;;;;1.50;1.40;;;26.30;99.90;;;;;;5035632;28;20242;-85
2023/09/16 10:27:12;;;;;;;2.10;1.50;;;26.40;99.90;;;;;;5035555;28;20236;-85
2023/09/16 10:29:40;;;;;;;1.30;1.13;;;26.50;99.90;;;;;;5035928;28;20192;-85
2023/09/16 10:32:07;;;;;;;1.10;1.10;;;26.60;99.90;;;;;;5035496;28;20203;-85
2023/09/16 10:34:38;;;;;;;1.15;1.05;;;26.80;99.90;;;;;;5035508;28;20202;-85
2023/09/16 10:37:05;;;;;;;0.80;0.80;;;26.80;99.90;;;;;;5034910;28;20211;-84
2023/09/16 10:39:33;;;;;;;1.30;1.20;;;27.00;99.90;;;;;;5035054;28;20195;-84
2023/09/16 10:42:01;;;;;;;2.15;0.80;;;27.10;99.90;;;;;;5035213;28;20274;-84
2023/09/16 10:44:30;;;;;;;1.38;1.27;;;27.30;99.90;;;;;;5035294;28;20231;-84
2023/09/16 10:46:59;;;;;;;1.35;1.25;;;27.50;99.90;;;;;;5035391;28;20314;-84
2023/09/16 10:49:26;;;;;;;1.10;1.00;;;27.70;99.90;;;;;;5035351;28;20211;-84
2023/09/16 10:52:00;;;;;;;1.27;1.17;;;27.70;99.90;;;;;;5035285;28;20191;-84
2023/09/16 10:54:34;;;;;;;0.70;0.70;;;27.70;99.90;;;;;;5035070;28;20180;-84
2023/09/16 10:57:08;;;;;;;1.02;1.00;;;27.60;99.90;;;;;;5035033;28;20219;-84
2023/09/16 10:59:36;;;;;;;6.07;0.82;;;27.50;99.90;;;;;;5035056;28;20183;-85
2023/09/16 11:02:13;;;;;;;0.90;0.90;;;27.40;99.90;;;;;;5035204;28;20226;-84
2023/09/16 11:04:40;;;;;;;0.98;0.77;;;27.30;99.90;;;;;;5035435;28;20183;-84
2023/09/16 11:07:09;;;;;;;1.25;0.90;;;27.10;99.90;;;;;;5035116;28;20207;-84
2023/09/16 11:09:36;;;;;;;3.03;1.23;;;26.90;99.90;;;;;;5035010;28;20207;-84
2023/09/16 11:12:03;;;;;;;0.90;0.90;;;26.80;99.90;;;;;;5035021;28;20283;-84
2023/09/16 11:14:30;;;;;;;0.95;0.70;;;26.60;99.90;;;;;;5034546;28;20596;-84
2023/09/16 11:16:58;;;;;;;1.13;1.02;;;26.60;99.90;;;;;;5034820;28;20223;-84
2023/09/16 11:19:28;;;;;;;1.95;0.85;;;26.70;99.90;;;;;;5034613;28;20192;-84
2023/09/16 11:21:55;;;;;;;3.45;0.90;;;26.60;99.90;;;;;;5034854;28;20282;-86
2023/09/16 11:24:23;;;;;;;1.05;0.70;;;26.60;99.90;;;;;;5034441;28;20289;-84
2023/09/16 11:26:51;;;;;;;0.90;0.90;;;26.60;99.90;;;;;;5034064;28;20615;-84
2023/09/16 11:29:19;;;;;;;1.17;1.13;;;26.50;99.90;;;;;;5034626;28;20209;-85
2023/09/16 11:31:46;;;;;;;0.80;0.70;;;26.50;99.90;;;;;;5034525;28;20566;-85
2023/09/16 11:34:13;;;;;;;1.23;1.13;;;26.50;99.90;;;;;;5034889;28;20226;-85
2023/09/16 11:36:44;;;;;;;1.15;1.05;;;26.50;99.90;;;;;;5034227;28;20226;-83
2023/09/16 11:39:17;;;;;;;1.00;0.90;;;26.60;99.90;;;;;;5034947;28;20207;-83
2023/09/16 11:41:46;;;;;;;0.90;0.75;;;26.60;99.90;;;;;;5034485;28;20283;-84
2023/09/16 11:44:13;;;;;;;1.10;1.00;;;26.50;99.90;;;;;;5034330;28;20223;-84
2023/09/16 11:46:41;;;;;;;1.40;1.30;;;26.40;99.90;;;;;;5034213;28;20589;-85
2023/09/16 11:49:07;;;;;;;1.83;1.40;;;26.40;99.90;;;;;;5034295;28;20203;-85
2023/09/16 11:51:36;;;;;;;1.35;1.17;;;26.50;99.90;;;;;;5034054;28;20278;-84
2023/09/16 11:54:04;;;;;;;1.45;1.33;;;26.70;99.90;;;;;;5035219;28;20195;-85
2023/09/16 11:56:34;;;;;;;1.80;1.33;;;26.30;99.90;;;;;;5034252;28;20704;-84
2023/09/16 11:59:04;;;;;;;0.80;0.70;;;26.40;99.90;;;;;;5034179;28;20187;-84
2023/09/16 12:01:33;;;;;;;0.95;0.82;;;26.40;99.90;;;;;;5034210;28;20198;-85
2023/09/16 12:04:03;;;;;;;0.95;0.95;;;26.40;99.90;;;;;;5033967;28;20224;-85
2023/09/16 12:06:31;;;;;;;1.08;1.00;;;26.50;99.90;;;;;;5033993;28;20230;-84
2023/09/16 12:08:59;;;;;;;0.80;0.70;;;26.50;99.90;;;;;;5034182;28;20207;-85
2023/09/16 12:11:27;;;;;;;2.97;1.27;;;26.50;99.90;;;;;;5034175;28;20200;-84
2023/09/16 12:13:54;;;;;;;0.95;0.70;;;26.50;99.90;;;;;;5033721;28;20691;-84
2023/09/16 12:16:23;;;;;;;1.25;0.90;;;26.30;99.90;;;;;;5033224;28;20216;-83
2023/09/16 12:18:49;;;;;;;0.77;0.75;;;26.10;99.90;;;;;;5033733;28;20183;-84
2023/09/16 12:21:17;;;;;;;1.10;1.10;;;26.10;99.90;;;;;;5033429;28;20199;-84
2023/09/16 12:23:45;;;;;;;1.10;1.00;;;26.00;99.90;;;;;;5033286;28;20602;-83
2023/09/16 12:26:13;;;;;;;0.70;0.70;;;25.80;99.90;;;;;;5033403;28;20266;-84
2023/09/16 12:28:41;;;;;;;0.80;0.80;;;25.80;99.90;;;;;;5033425;28;20196;-84
2023/09/16 12:31:09;;;;;;;1.73;0.98;;;25.80;99.90;;;;;;5032976;28;20192;-84
2023/09/16 12:33:43;;;;;;;0.60;0.60;;;25.80;99.90;;;;;;5033002;28;20566;-83
2023/09/16 12:36:15;;;;;;;0.88;0.77;;;25.80;99.90;;;;;;5033674;28;20258;-84
2023/09/16 12:38:42;;;;;;;0.93;0.82;;;25.80;99.90;;;;;;5033577;28;20187;-84
2023/09/16 12:41:10;;;;;;;0.80;0.80;;;25.80;99.90;;;;;;5033730;28;20210;-84
2023/09/16 12:43:37;;;;;;;1.27;0.90;;;25.80;99.90;;;;;;5033027;28;20604;-86
2023/09/16 12:46:05;;;;;;;1.65;1.00;;;25.80;99.90;;;;;;5033359;28;20223;-84
2023/09/16 12:48:32;;;;;;;0.73;0.73;;;25.80;99.90;;;;;;5033352;28;20206;-84